sensor_id;sensor_type;location;lat;lon;timestamp;temperature;humidity
9776;DHT22;4927;52.472;13.108;2023-09-07T00:00:28;14.80;99.90
9776;DHT22;4927;52.472;13.108;2023-09-07T00:01:31;14.80;99.90
9776;DHT22;4927;52.472;13.108;2023-09-07T00:02:32;14.80;99.90
9776;DHT22;4927;52.472;13.108;2023-09-07T00:03:34;14.80;99.90
9776;DHT22;4927;52.472;13.108;2023-09-07T00:04:36;14.70;99.90
9776;DHT22;4927;52.472;13.108;2023-09-07T00:05:37;14.70;99.90
9776;DHT22;4927;52.472;13.108;2023-09-07T00:06:40;14.80;99.90
9776;DHT22;4927;52.472;13.108;2023-09-07T00:07:41;14.70;99.90
9776;DHT22;4927;52.472;13.108;2023-09-07T00:08:43;14.70;99.90
9776;DHT22;4927;52.472;13.108;2023-09-07T00:09:45;14.70;99.90
9776;DHT22;4927;52.472;13.108;2023-09-07T00:10:46;14.70;99.90
9776;DHT22;4927;52.472;13.108;2023-09-07T00:11:48;14.70;99.90
9776;DHT22;4927;52.472;13.108;2023-09-07T00:12:51;14.70;99.90
9776;DHT22;4927;52.472;13.108;2023-09-07T00:13:53;14.70;99.90
9776;DHT22;4927;52.472;13.108;2023-09-07T00:14:54;14.70;99.90
9776;DHT22;4927;52.472;13.108;2023-09-07T00:15:59;14.70;99.90
9776;DHT22;4927;52.472;13.108;2023-09-07T00:17:00;14.70;99.90
9776;DHT22;4927;52.472;13.108;2023-09-07T00:18:01;14.70;99.90
9776;DHT22;4927;52.472;13.108;2023-09-07T00:19:04;14.70;99.90
9776;DHT22;4927;52.472;13.108;2023-09-07T00:20:07;14.60;99.90
9776;DHT22;4927;52.472;13.108;2023-09-07T00:21:12;14.60;99.90
9776;DHT22;4927;52.472;13.108;2023-09-07T00:22:13;14.60;99.90
9776;DHT22;4927;52.472;13.108;2023-09-07T00:23:15;14.60;99.90
9776;DHT22;4927;52.472;13.108;2023-09-07T00:24:17;14.60;99.90
9776;DHT22;4927;52.472;13.108;2023-09-07T00:25:19;14.60;99.90
9776;DHT22;4927;52.472;13.108;2023-09-07T00:26:21;14.60;99.90
9776;DHT22;4927;52.472;13.108;2023-09-07T00:27:23;14.60;99.90
9776;DHT22;4927;52.472;13.108;2023-09-07T00:28:24;14.60;99.90
9776;DHT22;4927;52.472;13.108;2023-09-07T00:29:26;14.50;99.90
9776;DHT22;4927;52.472;13.108;2023-09-07T00:30:28;14.50;99.90
9776;DHT22;4927;52.472;13.108;2023-09-07T00:31:30;14.50;99.90
9776;DHT22;4927;52.472;13.108;2023-09-07T00:32:32;14.50;99.90
9776;DHT22;4927;52.472;13.108;2023-09-07T00:33:35;14.50;99.90
9776;DHT22;4927;52.472;13.108;2023-09-07T00:34:36;14.50;99.90
9776;DHT22;4927;52.472;13.108;2023-09-07T00:35:38;14.50;99.90
9776;DHT22;4927;52.472;13.108;2023-09-07T00:36:41;14.50;99.90
9776;DHT22;4927;52.472;13.108;2023-09-07T00:37:42;14.50;99.90
9776;DHT22;4927;52.472;13.108;2023-09-07T00:38:44;14.50;99.90
9776;DHT22;4927;52.472;13.108;2023-09-07T00:39:46;14.50;99.90
9776;DHT22;4927;52.472;13.108;2023-09-07T00:40:48;14.50;99.90
9776;DHT22;4927;52.472;13.108;2023-09-07T00:41:49;14.50;99.90
9776;DHT22;4927;52.472;13.108;2023-09-07T00:42:51;14.50;99.90
9776;DHT22;4927;52.472;13.108;2023-09-07T00:43:53;14.50;99.90
9776;DHT22;4927;52.472;13.108;2023-09-07T00:44:55;14.40;99.90
9776;DHT22;4927;52.472;13.108;2023-09-07T00:45:57;14.40;99.90
9776;DHT22;4927;52.472;13.108;2023-09-07T00:46:58;14.40;99.90
9776;DHT22;4927;52.472;13.108;2023-09-07T00:48:00;14.40;99.90
9776;DHT22;4927;52.472;13.108;2023-09-07T00:49:03;14.40;99.90
9776;DHT22;4927;52.472;13.108;2023-09-07T00:50:06;14.40;99.90
9776;DHT22;4927;52.472;13.108;2023-09-07T00:51:07;14.40;99.90
9776;DHT22;4927;52.472;13.108;2023-09-07T00:52:09;14.40;99.90
9776;DHT22;4927;52.472;13.108;2023-09-07T00:53:11;14.40;99.90
9776;DHT22;4927;52.472;13.108;2023-09-07T00:54:13;14.30;99.90
9776;DHT22;4927;52.472;13.108;2023-09-07T00:55:15;14.30;99.90
9776;DHT22;4927;52.472;13.108;2023-09-07T00:56:16;14.30;99.90
9776;DHT22;4927;52.472;13.108;2023-09-07T00:57:19;14.30;99.90
9776;DHT22;4927;52.472;13.108;2023-09-07T00:58:21;14.30;99.90
9776;DHT22;4927;52.472;13.108;2023-09-07T00:59:23;14.30;99.90
9776;DHT22;4927;52.472;13.108;2023-09-07T01:00:24;14.30;99.90
9776;DHT22;4927;52.472;13.108;2023-09-07T01:01:26;14.30;99.90
9776;DHT22;4927;52.472;13.108;2023-09-07T01:02:28;14.30;99.90
9776;DHT22;4927;52.472;13.108;2023-09-07T01:03:30;14.30;99.90
9776;DHT22;4927;52.472;13.108;2023-09-07T01:04:32;14.20;99.90
9776;DHT22;4927;52.472;13.108;2023-09-07T01:05:34;14.20;99.90
9776;DHT22;4927;52.472;13.108;2023-09-07T01:06:37;14.20;99.90
9776;DHT22;4927;52.472;13.108;2023-09-07T01:07:38;14.20;99.90
9776;DHT22;4927;52.472;13.108;2023-09-07T01:08:40;14.20;99.90
9776;DHT22;4927;52.472;13.108;2023-09-07T01:09:41;14.20;99.90
9776;DHT22;4927;52.472;13.108;2023-09-07T01:10:43;14.20;99.90
9776;DHT22;4927;52.472;13.108;2023-09-07T01:11:45;14.20;99.90
9776;DHT22;4927;52.472;13.108;2023-09-07T01:12:47;14.20;99.90
9776;DHT22;4927;52.472;13.108;2023-09-07T01:13:49;14.20;99.90
9776;DHT22;4927;52.472;13.108;2023-09-07T01:14:50;14.20;99.90
9776;DHT22;4927;52.472;13.108;2023-09-07T01:15:52;14.10;99.90
9776;DHT22;4927;52.472;13.108;2023-09-07T01:16:54;14.10;99.90
9776;DHT22;4927;52.472;13.108;2023-09-07T01:17:55;14.10;99.90
9776;DHT22;4927;52.472;13.108;2023-09-07T01:18:57;14.10;99.90
9776;DHT22;4927;52.472;13.108;2023-09-07T01:19:59;14.10;99.90
9776;DHT22;4927;52.472;13.108;2023-09-07T01:21:01;14.10;99.90
9776;DHT22;4927;52.472;13.108;2023-09-07T01:22:02;14.10;99.90
9776;DHT22;4927;52.472;13.108;2023-09-07T01:23:04;14.10;99.90
9776;DHT22;4927;52.472;13.108;2023-09-07T01:24:08;14.10;99.90
9776;DHT22;4927;52.472;13.108;2023-09-07T01:25:09;14.10;99.90
9776;DHT22;4927;52.472;13.108;2023-09-07T01:26:11;14.10;99.90
9776;DHT22;4927;52.472;13.108;2023-09-07T01:27:13;14.00;99.90
9776;DHT22;4927;52.472;13.108;2023-09-07T01:28:15;14.00;99.90
9776;DHT22;4927;52.472;13.108;2023-09-07T01:29:17;14.00;99.90
9776;DHT22;4927;52.472;13.108;2023-09-07T01:30:18;14.00;99.90
9776;DHT22;4927;52.472;13.108;2023-09-07T01:31:20;14.00;99.90
9776;DHT22;4927;52.472;13.108;2023-09-07T01:32:22;14.00;99.90
9776;DHT22;4927;52.472;13.108;2023-09-07T01:33:23;14.00;99.90
9776;DHT22;4927;52.472;13.108;2023-09-07T01:34:25;14.00;99.90
9776;DHT22;4927;52.472;13.108;2023-09-07T01:35:27;14.00;99.90
9776;DHT22;4927;52.472;13.108;2023-09-07T01:36:29;14.00;99.90
9776;DHT22;4927;52.472;13.108;2023-09-07T01:37:30;14.00;99.90
9776;DHT22;4927;52.472;13.108;2023-09-07T01:38:33;13.90;99.90
9776;DHT22;4927;52.472;13.108;2023-09-07T01:39:35;13.90;99.90
9776;DHT22;4927;52.472;13.108;2023-09-07T01:40:36;13.90;99.90
9776;DHT22;4927;52.472;13.108;2023-09-07T01:41:38;13.90;99.90
9776;DHT22;4927;52.472;13.108;2023-09-07T01:42:40;13.90;99.90
9776;DHT22;4927;52.472;13.108;2023-09-07T01:43:42;13.90;99.90
9776;DHT22;4927;52.472;13.108;2023-09-07T01:44:44;13.90;99.90
9776;DHT22;4927;52.472;13.108;2023-09-07T01:45:45;13.90;99.90
9776;DHT22;4927;52.472;13.108;2023-09-07T01:46:47;13.90;99.90
9776;DHT22;4927;52.472;13.108;2023-09-07T01:47:49;13.90;99.90
9776;DHT22;4927;52.472;13.108;2023-09-07T01:48:51;13.90;99.90
9776;DHT22;4927;52.472;13.108;2023-09-07T01:49:53;13.80;99.90
9776;DHT22;4927;52.472;13.108;2023-09-07T01:50:55;13.80;99.90
9776;DHT22;4927;52.472;13.108;2023-09-07T01:51:57;13.80;99.90
9776;DHT22;4927;52.472;13.108;2023-09-07T01:52:59;13.80;99.90
9776;DHT22;4927;52.472;13.108;2023-09-07T01:54:01;13.80;99.90
9776;DHT22;4927;52.472;13.108;2023-09-07T01:55:03;13.80;99.90
9776;DHT22;4927;52.472;13.108;2023-09-07T01:56:05;13.80;99.90
9776;DHT22;4927;52.472;13.108;2023-09-07T01:57:07;13.80;99.90
9776;DHT22;4927;52.472;13.108;2023-09-07T01:58:08;13.80;99.90
9776;DHT22;4927;52.472;13.108;2023-09-07T01:59:10;13.80;99.90
9776;DHT22;4927;52.472;13.108;2023-09-07T02:00:13;13.80;99.90
9776;DHT22;4927;52.472;13.108;2023-09-07T02:01:21;13.70;99.90
9776;DHT22;4927;52.472;13.108;2023-09-07T02:02:22;13.70;99.90
9776;DHT22;4927;52.472;13.108;2023-09-07T02:03:25;13.70;99.90
9776;DHT22;4927;52.472;13.108;2023-09-07T02:04:28;13.70;99.90
9776;DHT22;4927;52.472;13.108;2023-09-07T02:05:30;13.70;99.90
9776;DHT22;4927;52.472;13.108;2023-09-07T02:06:32;13.70;99.90
9776;DHT22;4927;52.472;13.108;2023-09-07T02:07:34;13.70;99.90
9776;DHT22;4927;52.472;13.108;2023-09-07T02:08:35;13.70;99.90
9776;DHT22;4927;52.472;13.108;2023-09-07T02:09:37;13.70;99.90
9776;DHT22;4927;52.472;13.108;2023-09-07T02:10:39;13.70;99.90
9776;DHT22;4927;52.472;13.108;2023-09-07T02:11:41;13.70;99.90
9776;DHT22;4927;52.472;13.108;2023-09-07T02:12:45;13.70;99.90
9776;DHT22;4927;52.472;13.108;2023-09-07T02:13:46;13.60;99.90
9776;DHT22;4927;52.472;13.108;2023-09-07T02:14:47;13.60;99.90
9776;DHT22;4927;52.472;13.108;2023-09-07T02:15:49;13.60;99.90
9776;DHT22;4927;52.472;13.108;2023-09-07T02:16:51;13.60;99.90
9776;DHT22;4927;52.472;13.108;2023-09-07T02:17:53;13.60;99.90
9776;DHT22;4927;52.472;13.108;2023-09-07T02:19:01;13.60;99.90
9776;DHT22;4927;52.472;13.108;2023-09-07T02:20:03;13.60;99.90
9776;DHT22;4927;52.472;13.108;2023-09-07T02:21:05;13.60;99.90
9776;DHT22;4927;52.472;13.108;2023-09-07T02:22:07;13.60;99.90
9776;DHT22;4927;52.472;13.108;2023-09-07T02:23:08;13.60;99.90
9776;DHT22;4927;52.472;13.108;2023-09-07T02:24:10;13.50;99.90
9776;DHT22;4927;52.472;13.108;2023-09-07T02:25:13;13.50;99.90
9776;DHT22;4927;52.472;13.108;2023-09-07T02:26:14;13.50;99.90
9776;DHT22;4927;52.472;13.108;2023-09-07T02:27:16;13.50;99.90
9776;DHT22;4927;52.472;13.108;2023-09-07T02:28:18;13.50;99.90
9776;DHT22;4927;52.472;13.108;2023-09-07T02:29:20;13.50;99.90
9776;DHT22;4927;52.472;13.108;2023-09-07T02:30:22;13.40;99.90
9776;DHT22;4927;52.472;13.108;2023-09-07T02:31:24;13.40;99.90
9776;DHT22;4927;52.472;13.108;2023-09-07T02:32:26;13.40;99.90
9776;DHT22;4927;52.472;13.108;2023-09-07T02:33:28;13.40;99.90
9776;DHT22;4927;52.472;13.108;2023-09-07T02:34:30;13.40;99.90
9776;DHT22;4927;52.472;13.108;2023-09-07T02:35:31;13.40;99.90
9776;DHT22;4927;52.472;13.108;2023-09-07T02:36:34;13.40;99.90
9776;DHT22;4927;52.472;13.108;2023-09-07T02:37:37;13.40;99.90
9776;DHT22;4927;52.472;13.108;2023-09-07T02:38:38;13.40;99.90
9776;DHT22;4927;52.472;13.108;2023-09-07T02:39:40;13.40;99.90
9776;DHT22;4927;52.472;13.108;2023-09-07T02:40:42;13.40;99.90
9776;DHT22;4927;52.472;13.108;2023-09-07T02:41:43;13.40;99.90
9776;DHT22;4927;52.472;13.108;2023-09-07T02:42:45;13.40;99.90
9776;DHT22;4927;52.472;13.108;2023-09-07T02:43:47;13.40;99.90
9776;DHT22;4927;52.472;13.108;2023-09-07T02:44:48;13.30;99.90
9776;DHT22;4927;52.472;13.108;2023-09-07T02:45:50;13.40;99.90
9776;DHT22;4927;52.472;13.108;2023-09-07T02:46:52;13.30;99.90
9776;DHT22;4927;52.472;13.108;2023-09-07T02:47:54;13.30;99.90
9776;DHT22;4927;52.472;13.108;2023-09-07T02:48:57;13.30;99.90
9776;DHT22;4927;52.472;13.108;2023-09-07T02:49:58;13.30;99.90
9776;DHT22;4927;52.472;13.108;2023-09-07T02:51:01;13.30;99.90
9776;DHT22;4927;52.472;13.108;2023-09-07T02:52:03;13.30;99.90
9776;DHT22;4927;52.472;13.108;2023-09-07T02:53:05;13.30;99.90
9776;DHT22;4927;52.472;13.108;2023-09-07T02:54:06;13.30;99.90
9776;DHT22;4927;52.472;13.108;2023-09-07T02:55:08;13.30;99.90
9776;DHT22;4927;52.472;13.108;2023-09-07T02:56:10;13.30;99.90
9776;DHT22;4927;52.472;13.108;2023-09-07T02:57:11;13.30;99.90
9776;DHT22;4927;52.472;13.108;2023-09-07T02:58:13;13.30;99.90
9776;DHT22;4927;52.472;13.108;2023-09-07T02:59:15;13.30;99.90
9776;DHT22;4927;52.472;13.108;2023-09-07T03:00:17;13.20;99.90
9776;DHT22;4927;52.472;13.108;2023-09-07T03:01:19;13.20;99.90
9776;DHT22;4927;52.472;13.108;2023-09-07T03:02:21;13.20;99.90
9776;DHT22;4927;52.472;13.108;2023-09-07T03:03:22;13.20;99.90
9776;DHT22;4927;52.472;13.108;2023-09-07T03:04:24;13.20;99.90
9776;DHT22;4927;52.472;13.108;2023-09-07T03:05:27;13.20;99.90
9776;DHT22;4927;52.472;13.108;2023-09-07T03:06:28;13.20;99.90
9776;DHT22;4927;52.472;13.108;2023-09-07T03:07:32;13.20;99.90
9776;DHT22;4927;52.472;13.108;2023-09-07T03:08:33;13.10;99.90
9776;DHT22;4927;52.472;13.108;2023-09-07T03:09:35;13.20;99.90
9776;DHT22;4927;52.472;13.108;2023-09-07T03:10:36;13.10;99.90
9776;DHT22;4927;52.472;13.108;2023-09-07T03:11:39;13.10;99.90
9776;DHT22;4927;52.472;13.108;2023-09-07T03:12:41;13.10;99.90
9776;DHT22;4927;52.472;13.108;2023-09-07T03:13:43;13.10;99.90
9776;DHT22;4927;52.472;13.108;2023-09-07T03:14:45;13.10;99.90
9776;DHT22;4927;52.472;13.108;2023-09-07T03:15:47;13.10;99.90
9776;DHT22;4927;52.472;13.108;2023-09-07T03:16:50;13.10;99.90
9776;DHT22;4927;52.472;13.108;2023-09-07T03:17:51;13.10;99.90
9776;DHT22;4927;52.472;13.108;2023-09-07T03:18:53;13.00;99.90
9776;DHT22;4927;52.472;13.108;2023-09-07T03:19:55;13.00;99.90
9776;DHT22;4927;52.472;13.108;2023-09-07T03:20:58;13.00;99.90
9776;DHT22;4927;52.472;13.108;2023-09-07T03:21:58;13.00;99.90
9776;DHT22;4927;52.472;13.108;2023-09-07T03:23:00;13.00;99.90
9776;DHT22;4927;52.472;13.108;2023-09-07T03:24:02;13.00;99.90
9776;DHT22;4927;52.472;13.108;2023-09-07T03:25:04;13.00;99.90
9776;DHT22;4927;52.472;13.108;2023-09-07T03:26:07;13.00;99.90
9776;DHT22;4927;52.472;13.108;2023-09-07T03:27:09;13.00;99.90
9776;DHT22;4927;52.472;13.108;2023-09-07T03:28:11;13.00;99.90
9776;DHT22;4927;52.472;13.108;2023-09-07T03:29:14;12.90;99.90
9776;DHT22;4927;52.472;13.108;2023-09-07T03:30:16;12.90;99.90
9776;DHT22;4927;52.472;13.108;2023-09-07T03:31:18;12.90;99.90
9776;DHT22;4927;52.472;13.108;2023-09-07T03:32:20;12.90;99.90
9776;DHT22;4927;52.472;13.108;2023-09-07T03:33:22;12.90;99.90
9776;DHT22;4927;52.472;13.108;2023-09-07T03:34:23;12.90;99.90
9776;DHT22;4927;52.472;13.108;2023-09-07T03:35:25;12.90;99.90
9776;DHT22;4927;52.472;13.108;2023-09-07T03:36:27;12.90;99.90
9776;DHT22;4927;52.472;13.108;2023-09-07T03:37:29;12.90;99.90
9776;DHT22;4927;52.472;13.108;2023-09-07T03:38:30;12.90;99.90
9776;DHT22;4927;52.472;13.108;2023-09-07T03:39:32;12.80;99.90
9776;DHT22;4927;52.472;13.108;2023-09-07T03:40:34;12.80;99.90
9776;DHT22;4927;52.472;13.108;2023-09-07T03:41:35;12.80;99.90
9776;DHT22;4927;52.472;13.108;2023-09-07T03:42:38;12.80;99.90
9776;DHT22;4927;52.472;13.108;2023-09-07T03:43:40;12.80;99.90
9776;DHT22;4927;52.472;13.108;2023-09-07T03:44:41;12.80;99.90
9776;DHT22;4927;52.472;13.108;2023-09-07T03:45:43;12.80;99.90
9776;DHT22;4927;52.472;13.108;2023-09-07T03:46:45;12.80;99.90
9776;DHT22;4927;52.472;13.108;2023-09-07T03:47:46;12.80;99.90
9776;DHT22;4927;52.472;13.108;2023-09-07T03:48:48;12.80;99.90
9776;DHT22;4927;52.472;13.108;2023-09-07T03:49:50;12.80;99.90
9776;DHT22;4927;52.472;13.108;2023-09-07T03:50:52;12.80;99.90
9776;DHT22;4927;52.472;13.108;2023-09-07T03:51:54;12.80;99.90
9776;DHT22;4927;52.472;13.108;2023-09-07T03:52:56;12.80;99.90
9776;DHT22;4927;52.472;13.108;2023-09-07T03:53:58;12.80;99.90
9776;DHT22;4927;52.472;13.108;2023-09-07T03:55:01;12.80;99.90
9776;DHT22;4927;52.472;13.108;2023-09-07T03:56:02;12.80;99.90
9776;DHT22;4927;52.472;13.108;2023-09-07T03:57:06;12.70;99.90
9776;DHT22;4927;52.472;13.108;2023-09-07T03:58:09;12.70;99.90
9776;DHT22;4927;52.472;13.108;2023-09-07T03:59:11;12.70;99.90
9776;DHT22;4927;52.472;13.108;2023-09-07T04:00:13;12.70;99.90
9776;DHT22;4927;52.472;13.108;2023-09-07T04:01:15;12.70;99.90
9776;DHT22;4927;52.472;13.108;2023-09-07T04:02:17;12.70;99.90
9776;DHT22;4927;52.472;13.108;2023-09-07T04:03:20;12.70;99.90
9776;DHT22;4927;52.472;13.108;2023-09-07T04:04:22;12.70;99.90
9776;DHT22;4927;52.472;13.108;2023-09-07T04:05:24;12.70;99.90
9776;DHT22;4927;52.472;13.108;2023-09-07T04:06:25;12.70;99.90
9776;DHT22;4927;52.472;13.108;2023-09-07T04:07:27;12.70;99.90
9776;DHT22;4927;52.472;13.108;2023-09-07T04:08:29;12.60;99.90
9776;DHT22;4927;52.472;13.108;2023-09-07T04:09:31;12.60;99.90
9776;DHT22;4927;52.472;13.108;2023-09-07T04:10:32;12.60;99.90
9776;DHT22;4927;52.472;13.108;2023-09-07T04:11:34;12.60;99.90
9776;DHT22;4927;52.472;13.108;2023-09-07T04:12:36;12.60;99.90
9776;DHT22;4927;52.472;13.108;2023-09-07T04:13:38;12.60;99.90
9776;DHT22;4927;52.472;13.108;2023-09-07T04:14:40;12.60;99.90
9776;DHT22;4927;52.472;13.108;2023-09-07T04:15:43;12.60;99.90
9776;DHT22;4927;52.472;13.108;2023-09-07T04:16:44;12.60;99.90
9776;DHT22;4927;52.472;13.108;2023-09-07T04:17:46;12.50;99.90
9776;DHT22;4927;52.472;13.108;2023-09-07T04:18:48;12.50;99.90
9776;DHT22;4927;52.472;13.108;2023-09-07T04:19:50;12.60;99.90
9776;DHT22;4927;52.472;13.108;2023-09-07T04:20:52;12.50;99.90
9776;DHT22;4927;52.472;13.108;2023-09-07T04:21:54;12.50;99.90
9776;DHT22;4927;52.472;13.108;2023-09-07T04:22:55;12.50;99.90
9776;DHT22;4927;52.472;13.108;2023-09-07T04:23:58;12.50;99.90
9776;DHT22;4927;52.472;13.108;2023-09-07T04:24:59;12.50;99.90
9776;DHT22;4927;52.472;13.108;2023-09-07T04:26:06;12.50;99.90
9776;DHT22;4927;52.472;13.108;2023-09-07T04:27:08;12.50;99.90
9776;DHT22;4927;52.472;13.108;2023-09-07T04:28:10;12.50;99.90
9776;DHT22;4927;52.472;13.108;2023-09-07T04:29:12;12.50;99.90
9776;DHT22;4927;52.472;13.108;2023-09-07T04:30:14;12.50;99.90
9776;DHT22;4927;52.472;13.108;2023-09-07T04:31:16;12.50;99.90
9776;DHT22;4927;52.472;13.108;2023-09-07T04:32:17;12.50;99.90
9776;DHT22;4927;52.472;13.108;2023-09-07T04:33:20;12.50;99.90
9776;DHT22;4927;52.472;13.108;2023-09-07T04:34:22;12.50;99.90
9776;DHT22;4927;52.472;13.108;2023-09-07T04:35:32;12.40;99.90
9776;DHT22;4927;52.472;13.108;2023-09-07T04:36:34;12.50;99.90
9776;DHT22;4927;52.472;13.108;2023-09-07T04:37:36;12.50;99.90
9776;DHT22;4927;52.472;13.108;2023-09-07T04:38:38;12.40;99.90
9776;DHT22;4927;52.472;13.108;2023-09-07T04:39:40;12.50;99.90
9776;DHT22;4927;52.472;13.108;2023-09-07T04:40:41;12.40;99.90
9776;DHT22;4927;52.472;13.108;2023-09-07T04:41:44;12.40;99.90
9776;DHT22;4927;52.472;13.108;2023-09-07T04:42:46;12.40;99.90
9776;DHT22;4927;52.472;13.108;2023-09-07T04:43:48;12.40;99.90
9776;DHT22;4927;52.472;13.108;2023-09-07T04:44:50;12.40;99.90
9776;DHT22;4927;52.472;13.108;2023-09-07T04:45:51;12.40;99.90
9776;DHT22;4927;52.472;13.108;2023-09-07T04:46:55;12.40;99.90
9776;DHT22;4927;52.472;13.108;2023-09-07T04:47:56;12.40;99.90
9776;DHT22;4927;52.472;13.108;2023-09-07T04:48:57;12.40;99.90
9776;DHT22;4927;52.472;13.108;2023-09-07T04:49:59;12.40;99.90
9776;DHT22;4927;52.472;13.108;2023-09-07T04:51:01;12.40;99.90
9776;DHT22;4927;52.472;13.108;2023-09-07T04:52:03;12.40;99.90
9776;DHT22;4927;52.472;13.108;2023-09-07T04:53:05;12.40;99.90
9776;DHT22;4927;52.472;13.108;2023-09-07T04:54:07;12.40;99.90
9776;DHT22;4927;52.472;13.108;2023-09-07T04:55:09;12.40;99.90
9776;DHT22;4927;52.472;13.108;2023-09-07T04:56:12;12.40;99.90
9776;DHT22;4927;52.472;13.108;2023-09-07T04:57:15;12.40;99.90
9776;DHT22;4927;52.472;13.108;2023-09-07T04:58:15;12.40;99.90
9776;DHT22;4927;52.472;13.108;2023-09-07T04:59:18;12.50;99.90
9776;DHT22;4927;52.472;13.108;2023-09-07T05:00:20;12.50;99.90
9776;DHT22;4927;52.472;13.108;2023-09-07T05:01:22;12.40;99.90
9776;DHT22;4927;52.472;13.108;2023-09-07T05:02:25;12.50;99.90
9776;DHT22;4927;52.472;13.108;2023-09-07T05:03:26;12.40;99.90
9776;DHT22;4927;52.472;13.108;2023-09-07T05:04:28;12.40;99.90
9776;DHT22;4927;52.472;13.108;2023-09-07T05:05:30;12.40;99.90
9776;DHT22;4927;52.472;13.108;2023-09-07T05:06:32;12.50;99.90
9776;DHT22;4927;52.472;13.108;2023-09-07T05:07:35;12.50;99.90
9776;DHT22;4927;52.472;13.108;2023-09-07T05:08:36;12.50;99.90
9776;DHT22;4927;52.472;13.108;2023-09-07T05:09:38;12.50;99.90
9776;DHT22;4927;52.472;13.108;2023-09-07T05:10:40;12.50;99.90
9776;DHT22;4927;52.472;13.108;2023-09-07T05:11:41;12.50;99.90
9776;DHT22;4927;52.472;13.108;2023-09-07T05:12:43;12.50;99.90
9776;DHT22;4927;52.472;13.108;2023-09-07T05:13:45;12.50;99.90
9776;DHT22;4927;52.472;13.108;2023-09-07T05:14:47;12.50;99.90
9776;DHT22;4927;52.472;13.108;2023-09-07T05:15:50;12.50;99.90
9776;DHT22;4927;52.472;13.108;2023-09-07T05:16:51;12.50;99.90
9776;DHT22;4927;52.472;13.108;2023-09-07T05:17:53;12.50;99.90
9776;DHT22;4927;52.472;13.108;2023-09-07T05:18:55;12.50;99.90
9776;DHT22;4927;52.472;13.108;2023-09-07T05:19:56;12.60;99.90
9776;DHT22;4927;52.472;13.108;2023-09-07T05:20:58;12.60;99.90
9776;DHT22;4927;52.472;13.108;2023-09-07T05:22:00;12.60;99.90
9776;DHT22;4927;52.472;13.108;2023-09-07T05:23:01;12.60;99.90
9776;DHT22;4927;52.472;13.108;2023-09-07T05:24:03;12.60;99.90
9776;DHT22;4927;52.472;13.108;2023-09-07T05:25:05;12.60;99.90
9776;DHT22;4927;52.472;13.108;2023-09-07T05:26:07;12.60;99.90
9776;DHT22;4927;52.472;13.108;2023-09-07T05:27:09;12.70;99.90
9776;DHT22;4927;52.472;13.108;2023-09-07T05:28:12;12.70;99.90
9776;DHT22;4927;52.472;13.108;2023-09-07T05:29:14;12.70;99.90
9776;DHT22;4927;52.472;13.108;2023-09-07T05:30:16;12.70;99.90
9776;DHT22;4927;52.472;13.108;2023-09-07T05:31:18;12.70;99.90
9776;DHT22;4927;52.472;13.108;2023-09-07T05:32:19;12.70;99.90
9776;DHT22;4927;52.472;13.108;2023-09-07T05:33:21;12.80;99.90
9776;DHT22;4927;52.472;13.108;2023-09-07T05:34:23;12.80;99.90
9776;DHT22;4927;52.472;13.108;2023-09-07T05:35:25;12.80;99.90
9776;DHT22;4927;52.472;13.108;2023-09-07T05:36:26;12.80;99.90
9776;DHT22;4927;52.472;13.108;2023-09-07T05:37:28;12.80;99.90
9776;DHT22;4927;52.472;13.108;2023-09-07T05:38:30;12.80;99.90
9776;DHT22;4927;52.472;13.108;2023-09-07T05:39:32;12.80;99.90
9776;DHT22;4927;52.472;13.108;2023-09-07T05:40:35;12.90;99.90
9776;DHT22;4927;52.472;13.108;2023-09-07T05:41:36;12.80;99.90
9776;DHT22;4927;52.472;13.108;2023-09-07T05:42:37;12.80;99.90
9776;DHT22;4927;52.472;13.108;2023-09-07T05:43:39;12.90;99.90
9776;DHT22;4927;52.472;13.108;2023-09-07T05:44:41;12.90;99.90
9776;DHT22;4927;52.472;13.108;2023-09-07T05:45:43;12.90;99.90
9776;DHT22;4927;52.472;13.108;2023-09-07T05:46:44;12.90;99.90
9776;DHT22;4927;52.472;13.108;2023-09-07T05:47:46;12.90;99.90
9776;DHT22;4927;52.472;13.108;2023-09-07T05:48:48;13.00;99.90
9776;DHT22;4927;52.472;13.108;2023-09-07T05:49:50;13.00;99.90
9776;DHT22;4927;52.472;13.108;2023-09-07T05:50:51;13.00;99.90
9776;DHT22;4927;52.472;13.108;2023-09-07T05:51:53;13.00;99.90
9776;DHT22;4927;52.472;13.108;2023-09-07T05:52:55;13.00;99.90
9776;DHT22;4927;52.472;13.108;2023-09-07T05:53:57;13.10;99.90
9776;DHT22;4927;52.472;13.108;2023-09-07T05:54:59;13.10;99.90
9776;DHT22;4927;52.472;13.108;2023-09-07T05:56:00;13.10;99.90
9776;DHT22;4927;52.472;13.108;2023-09-07T05:57:02;13.10;99.90
9776;DHT22;4927;52.472;13.108;2023-09-07T05:58:05;13.20;99.90
9776;DHT22;4927;52.472;13.108;2023-09-07T05:59:07;13.20;99.90
9776;DHT22;4927;52.472;13.108;2023-09-07T06:00:09;13.20;99.90
9776;DHT22;4927;52.472;13.108;2023-09-07T06:01:12;13.30;99.90
9776;DHT22;4927;52.472;13.108;2023-09-07T06:02:13;13.30;99.90
9776;DHT22;4927;52.472;13.108;2023-09-07T06:03:15;13.30;99.90
9776;DHT22;4927;52.472;13.108;2023-09-07T06:04:17;13.30;99.90
9776;DHT22;4927;52.472;13.108;2023-09-07T06:05:19;13.40;99.90
9776;DHT22;4927;52.472;13.108;2023-09-07T06:06:21;13.40;99.90
9776;DHT22;4927;52.472;13.108;2023-09-07T06:07:23;13.50;99.90
9776;DHT22;4927;52.472;13.108;2023-09-07T06:08:25;13.50;99.90
9776;DHT22;4927;52.472;13.108;2023-09-07T06:09:27;13.50;99.90
9776;DHT22;4927;52.472;13.108;2023-09-07T06:10:29;13.60;99.90
9776;DHT22;4927;52.472;13.108;2023-09-07T06:11:30;13.70;99.90
9776;DHT22;4927;52.472;13.108;2023-09-07T06:12:32;13.80;99.90
9776;DHT22;4927;52.472;13.108;2023-09-07T06:13:34;13.80;99.90
9776;DHT22;4927;52.472;13.108;2023-09-07T06:14:35;13.90;99.90
9776;DHT22;4927;52.472;13.108;2023-09-07T06:15:38;14.10;99.90
9776;DHT22;4927;52.472;13.108;2023-09-07T06:16:39;14.10;99.90
9776;DHT22;4927;52.472;13.108;2023-09-07T06:17:42;14.30;99.90
9776;DHT22;4927;52.472;13.108;2023-09-07T06:18:44;14.30;99.90
9776;DHT22;4927;52.472;13.108;2023-09-07T06:19:46;14.40;99.90
9776;DHT22;4927;52.472;13.108;2023-09-07T06:20:47;14.50;99.90
9776;DHT22;4927;52.472;13.108;2023-09-07T06:21:49;14.50;99.90
9776;DHT22;4927;52.472;13.108;2023-09-07T06:22:52;14.70;99.90
9776;DHT22;4927;52.472;13.108;2023-09-07T06:23:53;14.70;99.90
9776;DHT22;4927;52.472;13.108;2023-09-07T06:24:56;14.80;99.90
9776;DHT22;4927;52.472;13.108;2023-09-07T06:25:59;14.90;99.90
9776;DHT22;4927;52.472;13.108;2023-09-07T06:27:00;14.90;99.90
9776;DHT22;4927;52.472;13.108;2023-09-07T06:28:01;14.90;99.90
9776;DHT22;4927;52.472;13.108;2023-09-07T06:29:03;15.00;99.90
9776;DHT22;4927;52.472;13.108;2023-09-07T06:30:06;15.10;99.90
9776;DHT22;4927;52.472;13.108;2023-09-07T06:31:08;15.10;99.90
9776;DHT22;4927;52.472;13.108;2023-09-07T06:32:10;15.20;99.90
9776;DHT22;4927;52.472;13.108;2023-09-07T06:33:12;15.30;99.90
9776;DHT22;4927;52.472;13.108;2023-09-07T06:34:14;15.40;99.90
9776;DHT22;4927;52.472;13.108;2023-09-07T06:35:16;15.40;99.90
9776;DHT22;4927;52.472;13.108;2023-09-07T06:36:18;15.50;99.90
9776;DHT22;4927;52.472;13.108;2023-09-07T06:37:20;15.50;99.90